Time;durP1;ratioP1;P1;durP2;ratioP2;P2;SDS_P1;SDS_P2;PMS_P1;PMS_P2;Temp;Humidity;BMP_temperature;BMP_pressure;BME280_temperature;BME280_humidity;BME280_pressure;Samples;Min_cycle;Max_cycle;Signal;HPM_P1;HPM_P2
2021/12/20 00:02:14;;;;;;;;;;;20.00;99.90;;;;;;4995532;28;1093;-54
2021/12/20 00:04:44;;;;;;;;;;;19.60;99.90;;;;;;4993404;28;1948;-53
2021/12/20 00:07:10;;;;;;;;;;;19.30;99.90;;;;;;4993201;28;1322;-53
2021/12/20 00:09:40;;;;;;;;;;;19.10;99.90;;;;;;4994272;28;1133;-53
2021/12/20 00:12:06;;;;;;;;;;;19.00;99.90;;;;;;4979921;28;913;-53
2021/12/20 00:14:32;;;;;;;;;;;18.80;99.90;;;;;;4997407;28;810;-53
2021/12/20 00:16:58;;;;;;;;;;;18.70;99.90;;;;;;4997259;28;814;-53
2021/12/20 00:19:26;;;;;;;;;;;18.60;99.90;;;;;;4996653;28;891;-53
2021/12/20 00:21:51;;;;;;;;;;;18.50;99.90;;;;;;4996661;28;1035;-53
2021/12/20 00:24:19;;;;;;;;;;;18.40;99.90;;;;;;4997061;28;1977;-53
2021/12/20 00:26:46;;;;;;;;;;;18.40;99.90;;;;;;4996666;28;945;-53
2021/12/20 00:29:14;;;;;;;;;;;18.30;99.90;;;;;;4996533;28;1236;-53
2021/12/20 00:31:40;;;;;;;;;;;18.20;99.90;;;;;;4997080;28;933;-53
2021/12/20 00:34:06;;;;;;;;;;;18.10;99.90;;;;;;4996359;28;874;-53
2021/12/20 00:36:32;;;;;;;;;;;18.00;99.90;;;;;;4996988;28;829;-53
2021/12/20 00:41:46;;;;;;;;;;;17.90;99.90;;;;;;4993676;28;943;-53
2021/12/20 00:44:14;;;;;;;;;;;17.80;99.90;;;;;;4993208;28;818;-53
2021/12/20 00:46:41;;;;;;;;;;;17.80;99.90;;;;;;4993118;28;925;-53
2021/12/20 00:49:08;;;;;;;;;;;17.70;99.90;;;;;;4969307;28;1244;-53
2021/12/20 00:51:34;;;;;;;;;;;17.70;99.90;;;;;;4992943;28;873;-53
2021/12/20 00:54:02;;;;;;;;;;;17.60;99.90;;;;;;4992566;28;916;-53
2021/12/20 00:56:28;;;;;;;;;;;17.60;99.90;;;;;;4992790;28;748;-53
2021/12/20 00:58:55;;;;;;;;;;;17.50;99.90;;;;;;4992704;28;947;-53
2021/12/20 01:01:22;;;;;;;;;;;17.40;99.90;;;;;;4996833;28;912;-53
2021/12/20 01:03:50;;;;;;;;;;;17.40;99.90;;;;;;4995137;28;1347;-53
2021/12/20 01:06:16;;;;;;;;;;;17.30;99.90;;;;;;4995762;28;1914;-53
2021/12/20 01:08:46;;;;;;;;;;;17.30;99.90;;;;;;4996535;28;859;-53
2021/12/20 01:11:20;;;;;;;;;;;17.20;99.90;;;;;;4996731;28;976;-53
2021/12/20 01:13:48;;;;;;;;;;;17.20;99.90;;;;;;4996696;28;937;-53
2021/12/20 01:16:15;;;;;;;;;;;17.10;99.90;;;;;;4996214;28;942;-53
2021/12/20 01:18:43;;;;;;;;;;;17.10;99.90;;;;;;4996574;28;891;-53
2021/12/20 01:21:10;;;;;;;;;;;17.00;99.90;;;;;;4996820;28;946;-53
2021/12/20 01:23:37;;;;;;;;;;;17.00;99.90;;;;;;4978702;28;994;-53
2021/12/20 01:26:04;;;;;;;;;;;16.90;99.90;;;;;;4995846;28;1973;-53
2021/12/20 01:28:30;;;;;;;;;;;16.90;99.90;;;;;;4977032;28;2019;-54
2021/12/20 01:30:56;;;;;;;;;;;16.90;99.90;;;;;;4996428;28;874;-54
2021/12/20 01:33:22;;;;;;;;;;;16.80;99.90;;;;;;4991235;28;792;-54
2021/12/20 01:35:50;;;;;;;;;;;16.80;99.90;;;;;;4979382;28;924;-54
2021/12/20 01:38:19;;;;;;;;;;;16.70;99.90;;;;;;4996274;28;826;-55
2021/12/20 01:40:45;;;;;;;;;;;16.70;99.90;;;;;;4996649;28;898;-53
2021/12/20 01:43:14;;;;;;;;;;;16.60;99.90;;;;;;4996698;28;834;-55
2021/12/20 01:45:47;;;;;;;;;;;16.60;99.90;;;;;;4978461;28;1910;-53
2021/12/20 01:48:18;;;;;;;;;;;16.60;99.90;;;;;;4978485;28;894;-53
2021/12/20 01:53:12;;;;;;;;;;;16.50;99.90;;;;;;4996152;28;949;-53
2021/12/20 01:55:39;;;;;;;;;;;16.50;99.90;;;;;;4996545;28;799;-55
2021/12/20 01:58:05;;;;;;;;;;;16.50;99.90;;;;;;4996386;28;818;-55
2021/12/20 02:00:34;;;;;;;;;;;16.40;99.90;;;;;;4996188;28;894;-55
2021/12/20 02:03:02;;;;;;;;;;;16.40;99.90;;;;;;4995362;28;874;-55
2021/12/20 02:08:22;;;;;;;;;;;16.30;99.90;;;;;;4991446;28;806;-55
2021/12/20 02:10:53;;;;;;;;;;;16.30;99.90;;;;;;4949497;28;975;-53
2021/12/20 02:13:21;;;;;;;;;;;16.20;99.90;;;;;;4979515;28;1024;-55
2021/12/20 02:15:49;;;;;;;;;;;16.20;99.90;;;;;;4995451;28;1021;-53
2021/12/20 02:18:15;;;;;;;;;;;16.20;99.90;;;;;;4981494;28;1061;-53
2021/12/20 02:20:41;;;;;;;;;;;16.20;99.90;;;;;;4981651;28;898;-53
2021/12/20 02:23:08;;;;;;;;;;;16.10;99.90;;;;;;4999851;28;925;-54
2021/12/20 02:25:34;;;;;;;;;;;16.10;99.90;;;;;;4999834;28;1907;-53
2021/12/20 02:28:07;;;;;;;;;;;16.10;99.90;;;;;;4999580;28;794;-55
2021/12/20 02:38:41;;;;;;;;;;;16.00;99.90;;;;;;4970201;28;1230;-54
2021/12/20 02:41:12;;;;;;;;;;;15.90;99.90;;;;;;4999394;28;838;-53
2021/12/20 02:43:41;;;;;;;;;;;15.90;99.90;;;;;;4992552;28;891;-53
2021/12/20 02:46:43;;;;;;;;;;;15.90;99.90;;;;;;4993352;28;1959;-53
2021/12/20 02:49:28;;;;;;;;;;;15.80;99.90;;;;;;4998868;28;866;-54
2021/12/20 02:52:00;;;;;;;;;;;15.80;99.90;;;;;;4999611;28;890;-53
2021/12/20 02:54:28;;;;;;;;;;;15.80;99.90;;;;;;4999091;28;928;-53
2021/12/20 02:56:55;;;;;;;;;;;15.80;99.90;;;;;;4997554;28;1350;-53
2021/12/20 02:59:23;;;;;;;;;;;15.80;99.90;;;;;;4949358;28;986;-53
2021/12/20 03:01:57;;;;;;;;;;;15.80;99.90;;;;;;4981323;28;921;-53
2021/12/20 03:04:25;;;;;;;;;;;15.80;99.90;;;;;;4998514;28;1056;-53
2021/12/20 03:06:54;;;;;;;;;;;15.70;99.90;;;;;;4996522;28;1964;-53
2021/12/20 03:09:27;;;;;;;;;;;15.70;99.90;;;;;;4998731;28;1035;-53
2021/12/20 03:11:57;;;;;;;;;;;15.70;99.90;;;;;;4982474;28;833;-54
2021/12/20 03:14:30;;;;;;;;;;;15.60;99.90;;;;;;4998306;28;885;-53
2021/12/20 03:16:57;;;;;;;;;;;15.60;99.90;;;;;;4998758;28;857;-54
2021/12/20 03:19:24;;;;;;;;;;;15.60;99.90;;;;;;4981963;28;916;-53
2021/12/20 03:21:51;;;;;;;;;;;15.60;99.90;;;;;;4998639;28;894;-54
2021/12/20 03:24:19;;;;;;;;;;;15.60;99.90;;;;;;4964373;28;1039;-54
2021/12/20 03:26:45;;;;;;;;;;;15.60;99.90;;;;;;4981742;28;1898;-54
2021/12/20 03:29:12;;;;;;;;;;;15.50;99.90;;;;;;4997744;28;945;-53
2021/12/20 03:31:39;;;;;;;;;;;15.50;99.90;;;;;;4998755;28;1152;-53
2021/12/20 03:34:07;;;;;;;;;;;15.50;99.90;;;;;;4998036;28;1018;-53
2021/12/20 03:36:34;;;;;;;;;;;15.50;99.90;;;;;;4978442;28;810;-53
2021/12/20 03:39:00;;;;;;;;;;;15.40;99.90;;;;;;4996221;28;857;-53
2021/12/20 03:41:27;;;;;;;;;;;15.40;99.90;;;;;;4997851;28;910;-53
2021/12/20 03:43:54;;;;;;;;;;;15.40;99.90;;;;;;4998103;28;764;-53
2021/12/20 03:46:22;;;;;;;;;;;15.40;99.90;;;;;;4998098;28;1896;-53
2021/12/20 03:48:49;;;;;;;;;;;15.30;99.90;;;;;;4997971;28;802;-53
2021/12/20 03:51:15;;;;;;;;;;;15.30;99.90;;;;;;4997995;28;943;-53
2021/12/20 03:53:43;;;;;;;;;;;15.30;99.90;;;;;;4997842;28;831;-53
2021/12/20 03:56:09;;;;;;;;;;;15.30;99.90;;;;;;4997921;28;853;-53
2021/12/20 03:58:36;;;;;;;;;;;15.30;99.90;;;;;;4997198;28;993;-53
2021/12/20 04:01:04;;;;;;;;;;;15.30;99.90;;;;;;4997285;28;1046;-54
2021/12/20 04:03:33;;;;;;;;;;;15.20;99.90;;;;;;4997687;28;885;-53
2021/12/20 04:06:00;;;;;;;;;;;15.20;99.90;;;;;;4997224;28;1906;-53
2021/12/20 04:08:27;;;;;;;;;;;15.20;99.90;;;;;;4997609;28;872;-53
2021/12/20 04:10:53;;;;;;;;;;;15.20;99.90;;;;;;4980276;28;863;-53
2021/12/20 04:13:19;;;;;;;;;;;15.10;99.90;;;;;;4997309;28;846;-53
2021/12/20 04:15:45;;;;;;;;;;;15.10;99.90;;;;;;4997218;28;913;-53
2021/12/20 04:18:12;;;;;;;;;;;15.10;99.90;;;;;;4997321;28;1284;-53
2021/12/20 04:20:38;;;;;;;;;;;15.10;99.90;;;;;;4997649;28;878;-53
2021/12/20 04:23:05;;;;;;;;;;;15.10;99.90;;;;;;4997339;28;912;-54
2021/12/20 04:25:31;;;;;;;;;;;15.10;99.90;;;;;;4997298;28;1953;-54
2021/12/20 04:27:57;;;;;;;;;;;15.10;99.90;;;;;;4997361;28;889;-54
2021/12/20 04:30:28;;;;;;;;;;;15.00;99.90;;;;;;4997583;28;884;-53
2021/12/20 04:32:54;;;;;;;;;;;15.00;99.90;;;;;;4994828;28;1027;-53
2021/12/20 04:35:20;;;;;;;;;;;15.00;99.90;;;;;;4994611;28;843;-53
2021/12/20 04:37:48;;;;;;;;;;;15.00;99.90;;;;;;4997151;28;850;-54
2021/12/20 04:40:19;;;;;;;;;;;15.00;99.90;;;;;;4996194;28;884;-53
2021/12/20 04:42:46;;;;;;;;;;;15.00;99.90;;;;;;4979763;28;898;-53
2021/12/20 04:45:13;;;;;;;;;;;15.00;99.90;;;;;;4996966;28;1956;-53
2021/12/20 04:47:40;;;;;;;;;;;14.90;99.90;;;;;;4997265;28;931;-53
2021/12/20 04:50:08;;;;;;;;;;;14.90;99.90;;;;;;4963199;28;1221;-53
2021/12/20 04:52:36;;;;;;;;;;;14.90;99.90;;;;;;4962956;28;953;-54
2021/12/20 04:55:08;;;;;;;;;;;14.90;99.90;;;;;;4962697;28;1019;-54
2021/12/20 04:57:35;;;;;;;;;;;14.90;99.90;;;;;;4946782;28;1502;-54
2021/12/20 05:00:02;;;;;;;;;;;14.90;99.90;;;;;;4996837;28;792;-53
2021/12/20 05:02:29;;;;;;;;;;;14.80;99.90;;;;;;4997046;28;815;-53
2021/12/20 05:04:55;;;;;;;;;;;14.80;99.90;;;;;;4995701;28;1977;-53
2021/12/20 05:07:23;;;;;;;;;;;14.80;99.90;;;;;;4996715;28;782;-54
2021/12/20 05:09:51;;;;;;;;;;;14.80;99.90;;;;;;4979444;28;1020;-53
2021/12/20 05:12:19;;;;;;;;;;;14.80;99.90;;;;;;4995468;28;881;-54
2021/12/20 05:14:45;;;;;;;;;;;14.80;99.90;;;;;;4963261;28;1125;-53
2021/12/20 05:17:13;;;;;;;;;;;14.70;99.90;;;;;;4996294;28;883;-53
2021/12/20 05:19:42;;;;;;;;;;;14.70;99.90;;;;;;4996497;28;842;-53
2021/12/20 05:22:09;;;;;;;;;;;14.70;99.90;;;;;;4979785;28;901;-54
2021/12/20 05:24:37;;;;;;;;;;;14.70;99.90;;;;;;4975282;28;1018;-54
2021/12/20 05:27:03;;;;;;;;;;;14.70;99.90;;;;;;4974813;28;1902;-54
2021/12/20 05:29:29;;;;;;;;;;;14.70;99.90;;;;;;4975595;28;878;-54
2021/12/20 05:31:57;;;;;;;;;;;14.60;99.90;;;;;;4975497;28;855;-54
2021/12/20 05:34:25;;;;;;;;;;;14.60;99.90;;;;;;4974757;28;925;-54
2021/12/20 05:36:51;;;;;;;;;;;14.60;99.90;;;;;;4974399;28;913;-54
2021/12/20 05:39:18;;;;;;;;;;;14.60;99.90;;;;;;4975332;28;957;-54
2021/12/20 05:41:45;;;;;;;;;;;14.60;99.90;;;;;;4975396;28;815;-54
2021/12/20 05:44:13;;;;;;;;;;;14.60;99.90;;;;;;4975371;28;944;-53
2021/12/20 05:46:40;;;;;;;;;;;14.60;99.90;;;;;;4975338;28;1903;-54
2021/12/20 05:49:08;;;;;;;;;;;14.60;99.90;;;;;;4974980;28;952;-54
2021/12/20 05:51:35;;;;;;;;;;;14.60;99.90;;;;;;4975747;28;890;-54
2021/12/20 05:54:02;;;;;;;;;;;14.70;99.90;;;;;;4979008;28;913;-54
2021/12/20 05:56:28;;;;;;;;;;;14.70;99.90;;;;;;4996896;28;918;-54
2021/12/20 05:58:54;;;;;;;;;;;14.70;99.90;;;;;;5000394;28;829;-54
2021/12/20 06:01:20;;;;;;;;;;;14.80;99.90;;;;;;5000350;28;879;-54
2021/12/20 06:03:47;;;;;;;;;;;14.90;99.90;;;;;;4995114;28;1230;-53
2021/12/20 06:06:14;;;;;;;;;;;14.90;99.90;;;;;;4999431;28;1986;-54
2021/12/20 06:08:41;;;;;;;;;;;15.00;99.90;;;;;;4999353;28;885;-54
2021/12/20 06:11:07;;;;;;;;;;;15.10;99.90;;;;;;5000013;28;837;-54
2021/12/20 06:13:33;;;;;;;;;;;15.20;99.90;;;;;;5000133;28;909;-54
2021/12/20 06:15:58;;;;;;;;;;;15.30;99.90;;;;;;4999878;28;880;-54
2021/12/20 06:18:24;;;;;;;;;;;15.40;99.90;;;;;;4999858;28;872;-54
2021/12/20 06:20:50;;;;;;;;;;;15.50;99.90;;;;;;4999586;28;866;-54
2021/12/20 06:23:17;;;;;;;;;;;15.60;99.90;;;;;;4999807;28;871;-54
2021/12/20 06:25:45;;;;;;;;;;;15.70;99.90;;;;;;4999645;28;1976;-54
2021/12/20 06:28:12;;;;;;;;;;;15.80;99.90;;;;;;4999568;28;920;-54
2021/12/20 06:30:38;;;;;;;;;;;15.90;99.90;;;;;;4999849;28;819;-54
2021/12/20 06:33:05;;;;;;;;;;;16.00;99.90;;;;;;4999022;28;824;-54
2021/12/20 06:35:34;;;;;;;;;;;16.00;99.90;;;;;;4999345;28;849;-53
2021/12/20 06:38:00;;;;;;;;;;;16.10;99.90;;;;;;4995384;28;866;-54
2021/12/20 06:40:28;;;;;;;;;;;16.20;99.90;;;;;;4999270;28;809;-53
2021/12/20 06:42:54;;;;;;;;;;;16.20;99.90;;;;;;4999366;28;841;-53
2021/12/20 06:45:20;;;;;;;;;;;16.20;99.90;;;;;;4999462;28;1914;-53
2021/12/20 06:47:48;;;;;;;;;;;16.30;99.90;;;;;;4999463;28;874;-54
2021/12/20 06:50:15;;;;;;;;;;;16.30;99.90;;;;;;4999159;28;862;-54
2021/12/20 06:52:42;;;;;;;;;;;16.30;99.90;;;;;;4999410;28;872;-55
2021/12/20 06:55:09;;;;;;;;;;;16.30;99.90;;;;;;4999055;28;868;-54
2021/12/20 06:57:36;;;;;;;;;;;16.30;99.90;;;;;;4965006;28;1303;-54
2021/12/20 07:00:03;;;;;;;;;;;16.30;99.90;;;;;;4998662;28;1027;-54
2021/12/20 07:02:29;;;;;;;;;;;16.30;99.90;;;;;;4998057;28;888;-54
2021/12/20 07:04:55;;;;;;;;;;;16.30;99.90;;;;;;4997515;28;1071;-54
2021/12/20 07:07:21;;;;;;;;;;;16.30;99.90;;;;;;4992466;28;1914;-53
2021/12/20 07:09:48;;;;;;;;;;;16.30;99.90;;;;;;4998764;28;841;-53
2021/12/20 07:12:16;;;;;;;;;;;16.30;99.90;;;;;;4998785;28;905;-53
2021/12/20 07:14:44;;;;;;;;;;;16.30;99.90;;;;;;4998081;28;1589;-53
2021/12/20 07:17:11;;;;;;;;;;;16.30;99.90;;;;;;4998831;28;995;-53
2021/12/20 07:19:38;;;;;;;;;;;16.30;99.90;;;;;;4998225;28;909;-53
2021/12/20 07:22:05;;;;;;;;;;;16.30;99.90;;;;;;4998596;28;902;-53
2021/12/20 07:24:31;;;;;;;;;;;16.30;99.90;;;;;;4964843;28;968;-53
2021/12/20 07:26:57;;;;;;;;;;;16.40;99.90;;;;;;4998447;28;1970;-53
2021/12/20 07:29:23;;;;;;;;;;;16.40;99.90;;;;;;4998319;28;865;-53
2021/12/20 07:31:51;;;;;;;;;;;16.40;99.90;;;;;;4998696;28;963;-53
2021/12/20 07:34:18;;;;;;;;;;;16.40;99.90;;;;;;4998211;28;960;-53
2021/12/20 07:36:45;;;;;;;;;;;16.40;99.90;;;;;;4964495;28;904;-53
2021/12/20 07:39:11;;;;;;;;;;;16.50;99.90;;;;;;4964634;28;967;-53
2021/12/20 07:41:37;;;;;;;;;;;16.50;99.90;;;;;;4998252;28;810;-53
2021/12/20 07:44:03;;;;;;;;;;;16.40;99.90;;;;;;4997951;28;980;-53
2021/12/20 07:46:31;;;;;;;;;;;16.50;99.90;;;;;;4997899;28;1902;-53
2021/12/20 07:49:00;;;;;;;;;;;16.50;99.90;;;;;;4997370;28;964;-54
2021/12/20 07:51:27;;;;;;;;;;;16.50;99.90;;;;;;4997217;28;971;-53
2021/12/20 07:53:54;;;;;;;;;;;16.50;99.90;;;;;;4997893;28;896;-53
2021/12/20 07:56:22;;;;;;;;;;;16.50;99.90;;;;;;4998224;28;884;-53
2021/12/20 07:58:49;;;;;;;;;;;16.50;99.90;;;;;;4997888;28;808;-53
2021/12/20 08:01:16;;;;;;;;;;;16.50;99.90;;;;;;4997927;28;979;-53
2021/12/20 08:03:44;;;;;;;;;;;16.50;99.90;;;;;;4973752;28;869;-53
2021/12/20 08:06:10;;;;;;;;;;;16.60;99.90;;;;;;4997472;28;1910;-53
2021/12/20 08:08:36;;;;;;;;;;;16.60;99.90;;;;;;4975954;28;933;-53
2021/12/20 08:11:03;;;;;;;;;;;16.60;99.90;;;;;;4997283;28;941;-53
2021/12/20 08:13:31;;;;;;;;;;;16.70;99.90;;;;;;4997689;28;884;-54
2021/12/20 08:15:58;;;;;;;;;;;16.70;99.90;;;;;;4997641;28;816;-53
2021/12/20 08:18:26;;;;;;;;;;;16.70;99.90;;;;;;4997577;28;965;-53
2021/12/20 08:20:53;;;;;;;;;;;16.70;99.90;;;;;;4994409;28;1109;-53
2021/12/20 08:23:20;;;;;;;;;;;16.60;99.90;;;;;;4997354;28;828;-53
2021/12/20 08:25:48;;;;;;;;;;;16.60;99.90;;;;;;4993221;28;1965;-53
2021/12/20 08:28:15;;;;;;;;;;;16.60;99.90;;;;;;4997608;28;796;-53
2021/12/20 08:30:42;;;;;;;;;;;16.60;99.90;;;;;;4995581;28;1072;-53
2021/12/20 08:33:08;;;;;;;;;;;16.60;99.90;;;;;;4993368;28;1203;-53
2021/12/20 08:35:34;;;;;;;;;;;16.60;99.90;;;;;;4997117;28;905;-53
2021/12/20 08:38:00;;;;;;;;;;;16.60;99.90;;;;;;4956716;29;886;-53
2021/12/20 08:40:26;;;;;;;;;;;16.60;99.90;;;;;;4956715;29;855;-53
2021/12/20 08:42:54;;;;;;;;;;;16.60;99.90;;;;;;4956794;29;900;-53
2021/12/20 08:45:20;;;;;;;;;;;16.70;99.90;;;;;;4956828;29;822;-53
2021/12/20 08:47:46;;;;;;;;;;;16.70;99.90;;;;;;4924907;29;1972;-53
2021/12/20 08:50:14;;;;;;;;;;;16.70;99.90;;;;;;4940836;29;1507;-53
2021/12/20 08:52:40;;;;;;;;;;;16.70;99.90;;;;;;4956144;29;1617;-53
2021/12/20 08:55:08;;;;;;;;;;;16.70;99.90;;;;;;4940491;29;874;-53
2021/12/20 08:57:35;;;;;;;;;;;16.70;99.90;;;;;;4940609;29;846;-53
2021/12/20 09:00:03;;;;;;;;;;;16.70;99.90;;;;;;4956617;29;905;-53
2021/12/20 09:02:29;;;;;;;;;;;16.70;99.90;;;;;;4956465;28;932;-54
2021/12/20 09:04:56;;;;;;;;;;;16.70;99.90;;;;;;4965200;28;1584;-54
2021/12/20 09:07:23;;;;;;;;;;;16.70;99.90;;;;;;4975690;28;1960;-53
2021/12/20 09:09:51;;;;;;;;;;;16.70;99.90;;;;;;4993523;28;920;-53
2021/12/20 09:12:19;;;;;;;;;;;16.70;99.90;;;;;;4996098;28;976;-53
2021/12/20 09:14:47;;;;;;;;;;;16.70;99.90;;;;;;4996773;28;854;-54
2021/12/20 09:17:15;;;;;;;;;;;16.70;99.90;;;;;;4996663;28;869;-53
2021/12/20 09:19:41;;;;;;;;;;;16.70;99.90;;;;;;4996698;28;877;-54
2021/12/20 09:22:10;;;;;;;;;;;16.70;99.90;;;;;;4996645;28;807;-53
2021/12/20 09:24:36;;;;;;;;;;;16.60;99.90;;;;;;4996011;28;998;-53
2021/12/20 09:27:03;;;;;;;;;;;16.60;99.90;;;;;;4998165;28;1975;-53
2021/12/20 09:29:30;;;;;;;;;;;16.60;99.90;;;;;;5002836;28;920;-54
2021/12/20 09:31:58;;;;;;;;;;;16.70;99.90;;;;;;5003158;28;901;-53
2021/12/20 09:34:26;;;;;;;;;;;16.80;99.90;;;;;;5003126;28;897;-53
2021/12/20 09:36:55;;;;;;;;;;;16.80;99.90;;;;;;4999140;28;889;-54
2021/12/20 09:39:23;;;;;;;;;;;16.90;99.90;;;;;;5002523;28;885;-54
2021/12/20 09:44:34;;;;;;;;;;;17.00;99.90;;;;;;5002977;28;797;-53
2021/12/20 09:47:01;;;;;;;;;;;17.10;99.90;;;;;;5002856;28;1977;-53
2021/12/20 09:49:30;;;;;;;;;;;17.20;99.90;;;;;;5002791;28;866;-53
2021/12/20 09:51:58;;;;;;;;;;;17.50;99.90;;;;;;5002739;28;869;-53
2021/12/20 09:54:25;;;;;;;;;;;17.70;99.90;;;;;;5002688;28;932;-53
2021/12/20 09:56:53;;;;;;;;;;;17.70;99.90;;;;;;5002485;28;850;-53
2021/12/20 09:59:20;;;;;;;;;;;17.70;99.90;;;;;;5002426;28;916;-53
2021/12/20 10:01:49;;;;;;;;;;;17.70;99.90;;;;;;5002572;28;979;-53
2021/12/20 10:04:15;;;;;;;;;;;17.60;99.90;;;;;;4972112;28;1175;-52
2021/12/20 10:06:42;;;;;;;;;;;17.60;99.90;;;;;;5000390;28;1898;-52
2021/12/20 10:09:12;;;;;;;;;;;17.60;99.90;;;;;;5001866;28;1060;-52
2021/12/20 10:11:40;;;;;;;;;;;17.50;99.90;;;;;;5002651;28;862;-52
2021/12/20 10:14:16;;;;;;;;;;;17.40;99.90;;;;;;5002509;28;946;-53
2021/12/20 10:16:45;;;;;;;;;;;17.40;99.90;;;;;;5002685;28;925;-52
2021/12/20 10:19:46;;;;;;;;;;;17.30;99.90;;;;;;5002258;28;898;-52
2021/12/20 10:22:28;;;;;;;;;;;17.30;99.90;;;;;;4942145;29;1169;-52
2021/12/20 10:24:58;;;;;;;;;;;17.30;99.90;;;;;;4996921;28;926;-53
2021/12/20 10:27:43;;;;;;;;;;;17.30;99.90;;;;;;5002028;28;1906;-53
2021/12/20 10:30:21;;;;;;;;;;;17.20;99.90;;;;;;5001949;28;1262;-53
2021/12/20 10:32:47;;;;;;;;;;;16.80;99.90;;;;;;5001452;28;1187;-53
2021/12/20 10:35:25;;;;;;;;;;;16.50;99.90;;;;;;4997427;28;1298;-54
2021/12/20 10:37:55;;;;;;;;;;;16.40;99.90;;;;;;5000276;28;842;-54
2021/12/20 10:40:22;;;;;;;;;;;16.60;99.90;;;;;;4998435;28;844;-52
2021/12/20 10:42:53;;;;;;;;;;;17.00;99.90;;;;;;4995029;28;1016;-53
2021/12/20 10:45:26;;;;;;;;;;;17.30;99.90;;;;;;4950581;28;1134;-53
2021/12/20 10:47:52;;;;;;;;;;;17.50;99.90;;;;;;4997707;28;1973;-53
2021/12/20 10:50:23;;;;;;;;;;;17.60;99.90;;;;;;4999254;28;846;-53
2021/12/20 10:52:49;;;;;;;;;;;17.70;99.90;;;;;;4999357;28;859;-52
2021/12/20 10:55:34;;;;;;;;;;;17.70;99.90;;;;;;4992611;28;963;-52
2021/12/20 10:58:18;;;;;;;;;;;17.80;99.90;;;;;;4977413;28;1260;-52
2021/12/20 11:00:45;;;;;;;;;;;17.80;99.90;;;;;;4999024;28;838;-52
2021/12/20 11:03:26;;;;;;;;;;;17.90;99.90;;;;;;4994855;28;1050;-53
2021/12/20 11:06:41;;;;;;;;;;;17.90;99.90;;;;;;4979217;28;1914;-53
2021/12/20 11:11:27;;;;;;;;;;;18.00;99.90;;;;;;4979634;28;846;-53
2021/12/20 11:13:53;;;;;;;;;;;18.00;99.90;;;;;;4978289;28;918;-52
2021/12/20 11:16:28;;;;;;;;;;;18.00;99.90;;;;;;4979094;28;854;-53
2021/12/20 11:19:12;;;;;;;;;;;18.00;99.90;;;;;;4978233;28;930;-53
2021/12/20 11:21:50;;;;;;;;;;;17.90;99.90;;;;;;4979013;28;836;-52
2021/12/20 11:24:18;;;;;;;;;;;17.90;99.90;;;;;;4979218;28;806;-52
2021/12/20 11:26:45;;;;;;;;;;;17.90;99.90;;;;;;4978715;28;1982;-52
2021/12/20 11:29:13;;;;;;;;;;;17.90;99.90;;;;;;4979084;28;890;-52
2021/12/20 11:31:40;;;;;;;;;;;17.80;99.90;;;;;;4979270;28;952;-52
2021/12/20 11:34:08;;;;;;;;;;;17.80;99.90;;;;;;4962518;28;1019;-52
2021/12/20 11:36:34;;;;;;;;;;;17.70;99.90;;;;;;4943105;28;949;-52
2021/12/20 11:39:00;;;;;;;;;;;17.60;99.90;;;;;;4975784;28;1033;-52
2021/12/20 11:41:27;;;;;;;;;;;17.60;99.90;;;;;;4978469;28;960;-52
2021/12/20 11:43:56;;;;;;;;;;;17.50;99.90;;;;;;4978463;28;860;-52
2021/12/20 11:46:24;;;;;;;;;;;17.50;99.90;;;;;;4978913;28;1914;-53
2021/12/20 11:48:51;;;;;;;;;;;17.40;99.90;;;;;;4978640;28;909;-52
2021/12/20 11:51:18;;;;;;;;;;;17.30;99.90;;;;;;4978006;28;889;-52
2021/12/20 11:53:45;;;;;;;;;;;17.30;99.90;;;;;;4978471;28;887;-52
2021/12/20 11:56:13;;;;;;;;;;;17.20;99.90;;;;;;4978530;28;834;-52
2021/12/20 11:58:49;;;;;;;;;;;17.20;99.90;;;;;;4978148;28;886;-52
2021/12/20 12:01:18;;;;;;;;;;;17.10;99.90;;;;;;4978726;28;783;-52
2021/12/20 12:03:57;;;;;;;;;;;17.10;99.90;;;;;;4961126;28;902;-52
2021/12/20 12:06:26;;;;;;;;;;;17.10;99.90;;;;;;4990081;28;1914;-52
2021/12/20 12:08:52;;;;;;;;;;;17.00;99.90;;;;;;4991374;28;873;-52
2021/12/20 12:11:19;;;;;;;;;;;17.00;99.90;;;;;;4997871;28;830;-52
2021/12/20 12:14:00;;;;;;;;;;;16.90;99.90;;;;;;4997842;28;820;-52
2021/12/20 12:16:47;;;;;;;;;;;16.90;99.90;;;;;;4980283;28;981;-52
2021/12/20 12:19:35;;;;;;;;;;;16.80;99.90;;;;;;4996682;28;930;-52
2021/12/20 12:22:02;;;;;;;;;;;16.70;99.90;;;;;;4997376;28;822;-52
2021/12/20 12:24:54;;;;;;;;;;;16.70;99.90;;;;;;4997304;28;869;-52
2021/12/20 12:27:19;;;;;;;;;;;16.70;99.90;;;;;;4994603;28;1902;-52
2021/12/20 12:29:45;;;;;;;;;;;16.70;99.90;;;;;;4997426;28;873;-52
2021/12/20 12:32:13;;;;;;;;;;;16.70;99.90;;;;;;4997334;28;889;-52
2021/12/20 12:34:43;;;;;;;;;;;16.70;99.90;;;;;;4989524;28;1389;-52
2021/12/20 12:37:25;;;;;;;;;;;16.70;99.90;;;;;;4940389;29;952;-52
2021/12/20 12:39:51;;;;;;;;;;;16.60;99.90;;;;;;4937523;29;929;-54
2021/12/20 12:42:39;;;;;;;;;;;16.60;99.90;;;;;;4937305;29;949;-52
2021/12/20 12:45:05;;;;;;;;;;;16.50;99.90;;;;;;4937597;29;1324;-52
2021/12/20 12:47:34;;;;;;;;;;;16.50;99.90;;;;;;4937452;29;1962;-52
2021/12/20 12:50:01;;;;;;;;;;;16.40;99.90;;;;;;4937471;29;1234;-52
2021/12/20 12:52:27;;;;;;;;;;;16.40;99.90;;;;;;4937574;29;914;-54
2021/12/20 12:54:54;;;;;;;;;;;16.40;99.90;;;;;;4937406;29;885;-52
2021/12/20 12:57:20;;;;;;;;;;;16.30;99.90;;;;;;4937402;29;940;-52
2021/12/20 13:00:04;;;;;;;;;;;16.30;99.90;;;;;;4933905;29;1581;-52
2021/12/20 13:02:30;;;;;;;;;;;16.30;99.90;;;;;;4934206;29;805;-52
2021/12/20 13:04:58;;;;;;;;;;;16.20;99.90;;;;;;4944071;28;1088;-52
2021/12/20 13:07:32;;;;;;;;;;;16.20;99.90;;;;;;4961694;28;1914;-52
2021/12/20 13:10:02;;;;;;;;;;;16.20;99.90;;;;;;4951301;29;1636;-54
2021/12/20 13:15:12;;;;;;;;;;;16.10;99.90;;;;;;4956479;29;822;-52
2021/12/20 13:17:43;;;;;;;;;;;16.10;99.90;;;;;;4956378;29;899;-54
2021/12/20 13:20:23;;;;;;;;;;;16.00;99.90;;;;;;4961421;28;913;-52
2021/12/20 13:22:54;;;;;;;;;;;16.00;99.90;;;;;;4996465;28;928;-52
2021/12/20 13:25:33;;;;;;;;;;;16.00;99.90;;;;;;4996495;28;908;-52
2021/12/20 13:27:59;;;;;;;;;;;16.00;99.90;;;;;;4996811;28;1943;-53
2021/12/20 13:30:46;;;;;;;;;;;15.90;99.90;;;;;;4996824;28;812;-54
2021/12/20 13:33:13;;;;;;;;;;;15.90;99.90;;;;;;4996290;28;1635;-53
2021/12/20 13:35:40;;;;;;;;;;;15.90;99.90;;;;;;4995398;28;865;-54
2021/12/20 13:38:21;;;;;;;;;;;15.90;99.90;;;;;;4978903;28;920;-54
2021/12/20 13:40:53;;;;;;;;;;;15.80;99.90;;;;;;4994813;28;1110;-54
2021/12/20 13:43:33;;;;;;;;;;;15.80;99.90;;;;;;4996580;28;888;-53
2021/12/20 13:46:02;;;;;;;;;;;15.80;99.90;;;;;;4996118;28;1028;-54
2021/12/20 13:48:28;;;;;;;;;;;15.80;99.90;;;;;;4996624;28;1955;-52
2021/12/20 13:50:54;;;;;;;;;;;15.80;99.90;;;;;;4996258;28;778;-52
2021/12/20 13:53:31;;;;;;;;;;;15.70;99.90;;;;;;4996393;28;971;-52
2021/12/20 13:55:58;;;;;;;;;;;15.60;99.90;;;;;;4996225;28;893;-54
2021/12/20 13:58:25;;;;;;;;;;;15.60;99.90;;;;;;4996348;28;927;-52
2021/12/20 14:00:53;;;;;;;;;;;15.60;99.90;;;;;;4996297;28;925;-52
2021/12/20 14:03:21;;;;;;;;;;;15.60;99.90;;;;;;4996437;28;1024;-52
2021/12/20 14:05:48;;;;;;;;;;;15.60;99.90;;;;;;4995901;28;1197;-52
2021/12/20 14:08:16;;;;;;;;;;;15.60;99.90;;;;;;4992966;28;1914;-52
2021/12/20 14:10:43;;;;;;;;;;;15.60;99.90;;;;;;4978245;28;1052;-52
2021/12/20 14:13:11;;;;;;;;;;;15.50;99.90;;;;;;4997747;28;811;-53
2021/12/20 14:15:44;;;;;;;;;;;15.50;99.90;;;;;;4999853;28;870;-52
2021/12/20 14:18:14;;;;;;;;;;;15.50;99.90;;;;;;4960305;28;928;-52
2021/12/20 14:20:44;;;;;;;;;;;15.50;99.90;;;;;;4965825;28;922;-52
2021/12/20 14:23:29;;;;;;;;;;;15.50;99.90;;;;;;4966017;28;933;-52
2021/12/20 14:26:04;;;;;;;;;;;15.50;99.90;;;;;;4998800;28;875;-52
2021/12/20 14:28:31;;;;;;;;;;;15.50;99.90;;;;;;4998933;28;1898;-54
2021/12/20 14:31:07;;;;;;;;;;;15.40;99.90;;;;;;4999594;28;873;-54
2021/12/20 14:33:35;;;;;;;;;;;15.40;99.90;;;;;;4999387;28;1004;-54
2021/12/20 14:36:01;;;;;;;;;;;15.40;99.90;;;;;;4999350;28;968;-53
2021/12/20 14:38:29;;;;;;;;;;;15.40;99.90;;;;;;4993447;28;863;-52
2021/12/20 14:40:57;;;;;;;;;;;15.40;99.90;;;;;;4999077;28;898;-53
2021/12/20 14:43:30;;;;;;;;;;;15.40;99.90;;;;;;4999336;28;937;-52
2021/12/20 14:46:14;;;;;;;;;;;15.40;99.90;;;;;;4993096;28;1124;-52
2021/12/20 14:48:44;;;;;;;;;;;15.30;99.90;;;;;;4995185;28;1903;-52
2021/12/20 14:51:14;;;;;;;;;;;15.30;99.90;;;;;;4998803;28;910;-52
2021/12/20 14:53:40;;;;;;;;;;;15.30;99.90;;;;;;4999220;28;875;-54
2021/12/20 14:56:07;;;;;;;;;;;15.30;99.90;;;;;;4998989;28;881;-52
2021/12/20 14:58:33;;;;;;;;;;;15.20;99.90;;;;;;4999123;28;888;-52
2021/12/20 15:01:01;;;;;;;;;;;15.10;99.90;;;;;;4995702;28;1251;-52
2021/12/20 15:03:28;;;;;;;;;;;15.10;99.90;;;;;;4995243;28;865;-52
2021/12/20 15:05:59;;;;;;;;;;;15.00;99.90;;;;;;4993202;28;1546;-52
2021/12/20 15:08:25;;;;;;;;;;;15.10;99.90;;;;;;4998777;28;1902;-52
2021/12/20 15:10:52;;;;;;;;;;;15.10;99.90;;;;;;4998740;28;960;-53
2021/12/20 15:13:18;;;;;;;;;;;15.10;99.90;;;;;;4999093;28;839;-52